Ilyas Efendiyev — 9HES8 — position and weather

sailwx.info

Track history (hours):
 
Tides and Currents Weather Stations Pressure Air Temp Water Temp Dewpoint Dewpoint Depression Visibility Wind Speed Wind Dir Waves Ship Positions

Ilyas Efendiyev

Last reported at 2016-Feb-07 08:31 UTC. Time now 2016-Feb-07 08:35 UTC.
Position N 38°04' W 009°33'.

Length 140 m; draft 4.7 m.

Type: Cargo ship. MMSI: 215901000.

Date/timePositionNaut miles runAvg speedWind from/ knotsBaromVisibWave heightAir tempDewpointWater temp
2016-Feb-07 08:31N 38°04' W 009°33'13 6.6
2016-Feb-07 06:31N 37°51' W 009°31'7 6.8
2016-Feb-07 05:31N 37°44' W 009°31'7 6.5
2016-Feb-07 04:31N 37°38' W 009°31'6 5.8
2016-Feb-07 03:33N 37°33' W 009°29'6 6.3
2016-Feb-07 02:33N 37°26' W 009°28'10 6.6
2016-Feb-07 01:06N 37°17' W 009°25'4 7.0
2016-Feb-07 00:30N 37°13' W 009°23'6 6.6
2016-Feb-06 23:33N 37°07' W 009°22'7 7.2
2016-Feb-06 22:33N 36°60' W 009°20'7 7.2
2016-Feb-06 21:34N 36°53' W 009°17'8 7.7
2016-Feb-06 20:30N 36°47' W 009°10'8 8.3
2016-Feb-06 19:31N 36°43' W 009°01'9 8.1
2016-Feb-06 18:28N 36°41' W 008°51'8 8.7
2016-Feb-06 17:33N 36°39' W 008°41'9 8.3
2016-Feb-06 16:31N 36°36' W 008°31'9 8.6
2016-Feb-06 15:31N 36°33' W 008°21'8 8.4
2016-Feb-06 14:31N 36°31' W 008°11'134 8.4
2016-Feb-05 22:33N 35°59' W 005°30'7 7.1
2016-Feb-05 21:33N 36°02' W 005°21'7 7.2
2016-Feb-05 20:31N 36°04' W 005°13'215 8.0
2016-Feb-04 17:33N 37°23' W 001°03'9 9.0
2016-Feb-04 16:33N 37°25' W 000°52'10 8.8
2016-Feb-04 15:28N 37°27' W 000°40'8 8.7
2016-Feb-04 14:30N 37°29' W 000°30'440 8.6
2016-Feb-02 11:30N 38°45' E 008°41'9 8.6
2016-Feb-02 10:26N 38°45' E 008°53'291 6.9
2016-Jan-31 16:31N 36°16' E 014°08'8 8.1
2016-Jan-31 15:33N 36°10' E 014°15'8 8.2
2016-Jan-31 14:33N 36°05' E 014°23'8 8.3
2016-Jan-31 13:33N 36°00' E 014°31'  
Track history (hours):
 
Tides and Currents Weather Stations Pressure Air Temp Water Temp Dewpoint Dewpoint Depression Visibility Wind Speed Wind Dir Waves Ship Positions

Ilyas Efendiyev

Last reported at 2016-Feb-07 08:31 UTC. Time now 2016-Feb-07 08:35 UTC.
Position N 38°04' W 009°33'.

Length 140 m; draft 4.7 m.

Type: Cargo ship. MMSI: 215901000.

Date/timePositionNaut miles runAvg speedWind from/ knotsBaromVisibWave heightAir tempDewpointWater temp
2016-Feb-07 08:31N 38°04' W 009°33'13 6.6
2016-Feb-07 06:31N 37°51' W 009°31'7 6.8
2016-Feb-07 05:31N 37°44' W 009°31'7 6.5
2016-Feb-07 04:31N 37°38' W 009°31'6 5.8
2016-Feb-07 03:33N 37°33' W 009°29'6 6.3
2016-Feb-07 02:33N 37°26' W 009°28'10 6.6
2016-Feb-07 01:06N 37°17' W 009°25'4 7.0
2016-Feb-07 00:30N 37°13' W 009°23'6 6.6
2016-Feb-06 23:33N 37°07' W 009°22'7 7.2
2016-Feb-06 22:33N 36°60' W 009°20'7 7.2
2016-Feb-06 21:34N 36°53' W 009°17'8 7.7
2016-Feb-06 20:30N 36°47' W 009°10'8 8.3
2016-Feb-06 19:31N 36°43' W 009°01'9 8.1
2016-Feb-06 18:28N 36°41' W 008°51'8 8.7
2016-Feb-06 17:33N 36°39' W 008°41'9 8.3
2016-Feb-06 16:31N 36°36' W 008°31'9 8.6
2016-Feb-06 15:31N 36°33' W 008°21'8 8.4
2016-Feb-06 14:31N 36°31' W 008°11'134 8.4
2016-Feb-05 22:33N 35°59' W 005°30'7 7.1
2016-Feb-05 21:33N 36°02' W 005°21'7 7.2
2016-Feb-05 20:31N 36°04' W 005°13'215 8.0
2016-Feb-04 17:33N 37°23' W 001°03'9 9.0
2016-Feb-04 16:33N 37°25' W 000°52'10 8.8
2016-Feb-04 15:28N 37°27' W 000°40'8 8.7
2016-Feb-04 14:30N 37°29' W 000°30'440 8.6
2016-Feb-02 11:30N 38°45' E 008°41'9 8.6
2016-Feb-02 10:26N 38°45' E 008°53'291 6.9
2016-Jan-31 16:31N 36°16' E 014°08'8 8.1
2016-Jan-31 15:33N 36°10' E 014°15'8 8.2
2016-Jan-31 14:33N 36°05' E 014°23'8 8.3
2016-Jan-31 13:33N 36°00' E 014°31'  

Dump ship's entire track history